Time;durP1;ratioP1;P1;durP2;ratioP2;P2;SDS_P1;SDS_P2;PMS_P1;PMS_P2;Temp;Humidity;BMP_temperature;BMP_pressure;BME280_temperature;BME280_humidity;BME280_pressure;Samples;Min_cycle;Max_cycle;Signal;HPM_P1;HPM_P2
2023/09/29 00:00:21;;;;;;;3.53;3.20;;;25.40;67.40;;;;;;5092262;28;20898;-74
2023/09/29 00:02:50;;;;;;;3.30;3.00;;;25.40;67.40;;;;;;5102688;27;20445;-70
2023/09/29 00:05:19;;;;;;;3.47;3.17;;;25.40;67.40;;;;;;5104328;28;20458;-71
2023/09/29 00:07:47;;;;;;;4.57;3.50;;;25.40;67.40;;;;;;5101133;28;20509;-70
2023/09/29 00:10:16;;;;;;;3.33;3.03;;;25.40;67.40;;;;;;5106248;28;20984;-76
2023/09/29 00:12:48;;;;;;;3.40;3.07;;;25.40;67.40;;;;;;5100962;27;20544;-73
2023/09/29 00:15:21;;;;;;;3.30;3.00;;;25.40;67.40;;;;;;5090580;28;20547;-75
2023/09/29 00:17:50;;;;;;;4.23;3.20;;;25.30;67.40;;;;;;5100518;28;20450;-71
2023/09/29 00:20:19;;;;;;;3.07;2.63;;;25.30;67.40;;;;;;5102431;28;20473;-72
2023/09/29 00:22:48;;;;;;;3.50;3.20;;;25.30;67.40;;;;;;5111540;28;20457;-70
2023/09/29 00:25:16;;;;;;;4.53;4.13;;;25.30;67.40;;;;;;5106091;28;20486;-72
2023/09/29 00:27:46;;;;;;;3.53;3.23;;;25.30;67.40;;;;;;5105896;28;20490;-70
2023/09/29 00:30:15;;;;;;;2.93;2.63;;;25.30;67.40;;;;;;5086106;28;21100;-75
2023/09/29 00:32:46;;;;;;;3.50;3.20;;;25.30;67.40;;;;;;5087889;28;20454;-72
2023/09/29 00:35:23;;;;;;;3.03;2.80;;;25.30;67.40;;;;;;5103798;28;20459;-74
2023/09/29 00:37:53;;;;;;;3.07;2.87;;;25.30;67.40;;;;;;5088155;28;20517;-70
2023/09/29 00:40:22;;;;;;;3.73;3.43;;;25.30;67.40;;;;;;5103563;28;20542;-75
2023/09/29 00:42:52;;;;;;;3.80;3.50;;;25.30;67.40;;;;;;5106494;28;20469;-71
2023/09/29 00:45:22;;;;;;;2.90;2.70;;;25.30;67.40;;;;;;5089829;28;20457;-74
2023/09/29 00:47:52;;;;;;;3.47;2.93;;;25.30;67.40;;;;;;5088788;28;20463;-76
2023/09/29 00:50:21;;;;;;;3.87;3.57;;;25.30;67.40;;;;;;5104756;28;20451;-74
2023/09/29 00:52:53;;;;;;;3.33;3.03;;;25.30;67.40;;;;;;5104810;28;20553;-70
2023/09/29 00:55:26;;;;;;;3.03;2.80;;;25.30;67.40;;;;;;5110559;28;20442;-72
2023/09/29 00:57:58;;;;;;;3.90;3.20;;;25.30;67.40;;;;;;5089101;28;20502;-71
2023/09/29 01:00:32;;;;;;;3.33;3.13;;;25.30;67.40;;;;;;5090543;28;20446;-77
2023/09/29 01:03:04;;;;;;;3.70;3.40;;;25.30;67.30;;;;;;5085510;28;20457;-71
2023/09/29 01:05:37;;;;;;;3.00;2.80;;;25.30;67.30;;;;;;5098630;28;20461;-82
2023/09/29 01:08:09;;;;;;;3.30;3.00;;;25.30;67.30;;;;;;5110493;28;20457;-74
2023/09/29 01:10:38;;;;;;;3.50;3.20;;;25.30;67.30;;;;;;5102548;28;20498;-71
2023/09/29 01:13:08;;;;;;;3.27;3.07;;;25.30;67.30;;;;;;5106774;28;20459;-71
2023/09/29 01:15:39;;;;;;;3.23;3.03;;;25.20;67.30;;;;;;5105832;28;20948;-71
2023/09/29 01:18:09;;;;;;;2.93;2.73;;;25.20;67.30;;;;;;5094303;27;20551;-71
2023/09/29 01:20:40;;;;;;;3.67;3.37;;;25.20;67.20;;;;;;5107155;28;20497;-70
2023/09/29 01:23:09;;;;;;;3.67;3.17;;;25.20;67.40;;;;;;5088975;28;20823;-70
2023/09/29 01:25:41;;;;;;;3.47;2.60;;;25.20;67.30;;;;;;5092945;28;20506;-75
2023/09/29 01:28:11;;;;;;;2.87;2.67;;;25.20;67.40;;;;;;5110914;28;20481;-71
2023/09/29 01:30:43;;;;;;;3.50;3.30;;;25.20;67.40;;;;;;5111182;27;20939;-70
2023/09/29 01:33:12;;;;;;;3.30;3.00;;;25.20;67.40;;;;;;5106831;27;20504;-74
2023/09/29 01:35:43;;;;;;;3.10;2.90;;;25.20;67.40;;;;;;5103035;28;20453;-71
2023/09/29 01:38:12;;;;;;;3.20;2.67;;;25.20;67.40;;;;;;5108880;28;20920;-70
2023/09/29 01:40:44;;;;;;;3.27;2.97;;;25.20;67.40;;;;;;5104823;28;20544;-74
2023/09/29 01:43:12;;;;;;;2.77;2.57;;;25.20;67.40;;;;;;5089233;28;20980;-71
2023/09/29 01:45:41;;;;;;;3.00;2.80;;;25.20;67.40;;;;;;5109098;27;20988;-77
2023/09/29 01:48:11;;;;;;;3.07;2.80;;;25.10;67.40;;;;;;5113923;28;20524;-72
2023/09/29 01:50:40;;;;;;;3.50;3.00;;;25.10;67.40;;;;;;5092245;28;20786;-75
2023/09/29 01:53:11;;;;;;;3.40;3.13;;;25.10;67.50;;;;;;5107652;28;20454;-71
2023/09/29 01:55:40;;;;;;;3.27;3.00;;;25.10;67.50;;;;;;5111540;27;20458;-71
2023/09/29 01:58:10;;;;;;;3.07;2.83;;;25.10;67.50;;;;;;5114002;27;20445;-71
2023/09/29 02:00:38;;;;;;;3.10;2.87;;;25.10;67.50;;;;;;5096898;28;20459;-74
2023/09/29 02:03:07;;;;;;;2.70;2.50;;;25.10;67.50;;;;;;5088810;28;20449;-74
2023/09/29 02:05:36;;;;;;;2.90;2.70;;;25.10;67.50;;;;;;5108456;27;21142;-71
2023/09/29 02:08:06;;;;;;;3.20;3.00;;;25.10;67.50;;;;;;5112001;28;20468;-71
2023/09/29 02:10:35;;;;;;;3.40;3.10;;;25.10;67.40;;;;;;5105255;28;21222;-70
2023/09/29 02:13:04;;;;;;;3.40;3.07;;;25.10;67.40;;;;;;5106084;27;20466;-70
2023/09/29 02:15:35;;;;;;;5.43;3.10;;;25.10;67.40;;;;;;5089123;28;20484;-71
2023/09/29 02:18:07;;;;;;;3.23;3.03;;;25.10;67.40;;;;;;5092895;28;20464;-70
2023/09/29 02:20:46;;;;;;;2.80;2.60;;;25.10;67.40;;;;;;5111532;28;20479;-70
2023/09/29 02:23:15;;;;;;;4.23;3.80;;;25.10;67.40;;;;;;5081479;27;20830;-71
2023/09/29 02:25:44;;;;;;;2.80;2.60;;;25.10;67.40;;;;;;5089413;28;20451;-71
2023/09/29 02:28:12;;;;;;;2.87;2.67;;;25.10;67.40;;;;;;5104242;28;20836;-75
2023/09/29 02:30:42;;;;;;;3.40;3.10;;;25.10;67.40;;;;;;5085107;28;20456;-76
2023/09/29 02:33:10;;;;;;;3.60;3.30;;;25.10;67.40;;;;;;5101795;28;20870;-70
2023/09/29 02:35:38;;;;;;;2.63;2.43;;;25.00;67.40;;;;;;5104955;28;20625;-71
2023/09/29 02:38:07;;;;;;;3.30;3.00;;;25.00;67.40;;;;;;5111226;28;20931;-75
2023/09/29 02:40:35;;;;;;;3.93;3.60;;;25.00;67.40;;;;;;5093687;28;20499;-73
2023/09/29 02:43:03;;;;;;;3.40;3.10;;;25.00;67.40;;;;;;5102967;27;20930;-74
2023/09/29 02:45:32;;;;;;;3.57;3.27;;;25.00;67.40;;;;;;5086201;28;20464;-75
2023/09/29 02:48:02;;;;;;;5.67;2.80;;;25.00;67.40;;;;;;5088604;28;20450;-70
2023/09/29 02:50:34;;;;;;;3.50;3.20;;;25.00;67.40;;;;;;5100876;27;20463;-71
2023/09/29 02:53:05;;;;;;;3.30;3.00;;;25.00;67.40;;;;;;5103447;27;20922;-78
2023/09/29 02:55:33;;;;;;;2.97;2.77;;;25.00;67.40;;;;;;5083542;28;20968;-70
2023/09/29 02:58:03;;;;;;;3.13;2.90;;;25.00;67.40;;;;;;5108424;28;21049;-70
2023/09/29 03:00:31;;;;;;;3.10;2.90;;;25.00;67.40;;;;;;5106937;28;20459;-70
2023/09/29 03:03:03;;;;;;;2.80;2.60;;;25.00;67.40;;;;;;5102696;27;20459;-71
2023/09/29 03:05:32;;;;;;;3.43;3.13;;;25.00;67.40;;;;;;5105510;27;20460;-74
2023/09/29 03:08:00;;;;;;;2.70;2.50;;;25.00;67.40;;;;;;5106773;28;20454;-77
2023/09/29 03:10:29;;;;;;;2.70;2.50;;;25.00;67.40;;;;;;5087828;28;20480;-70
2023/09/29 03:12:58;;;;;;;3.30;3.00;;;25.00;67.40;;;;;;5087357;28;20474;-72
2023/09/29 03:15:27;;;;;;;2.63;2.43;;;25.00;67.40;;;;;;5105893;27;21008;-78
2023/09/29 03:17:56;;;;;;;4.60;2.77;;;25.00;67.40;;;;;;5101502;27;20564;-71
2023/09/29 03:20:28;;;;;;;3.10;2.90;;;24.90;67.40;;;;;;5105227;28;20814;-70
2023/09/29 03:23:04;;;;;;;3.37;3.13;;;25.00;67.40;;;;;;5100050;28;20457;-74
2023/09/29 03:25:32;;;;;;;3.63;2.93;;;25.00;67.30;;;;;;5097365;28;20448;-72
2023/09/29 03:28:01;;;;;;;2.70;2.50;;;24.90;67.40;;;;;;5104801;28;20467;-70
2023/09/29 03:30:31;;;;;;;3.53;3.23;;;24.90;67.40;;;;;;5109707;28;20453;-70
2023/09/29 03:32:59;;;;;;;3.20;3.00;;;24.90;67.40;;;;;;5097594;28;20478;-80
2023/09/29 03:35:29;;;;;;;2.93;2.73;;;24.90;67.40;;;;;;5109877;27;20471;-72
2023/09/29 03:37:57;;;;;;;3.17;2.90;;;24.90;67.40;;;;;;5104464;28;20474;-74
2023/09/29 03:40:26;;;;;;;2.90;2.70;;;24.90;67.30;;;;;;5105750;28;20456;-74
2023/09/29 03:42:55;;;;;;;2.43;2.33;;;24.90;67.30;;;;;;5105445;28;20449;-76
2023/09/29 03:45:23;;;;;;;3.20;2.90;;;24.90;67.30;;;;;;5109936;27;20448;-74
2023/09/29 03:47:51;;;;;;;3.27;3.07;;;24.90;67.40;;;;;;5107900;28;20449;-72
2023/09/29 03:50:20;;;;;;;3.07;2.87;;;24.90;67.30;;;;;;5099553;28;20448;-71
2023/09/29 03:52:49;;;;;;;2.83;2.63;;;24.90;67.40;;;;;;5089333;28;20863;-71
2023/09/29 03:55:17;;;;;;;3.10;2.90;;;24.90;67.30;;;;;;5103308;28;20451;-74
2023/09/29 03:57:46;;;;;;;3.00;2.80;;;24.90;67.30;;;;;;5111430;28;20435;-71
2023/09/29 04:00:18;;;;;;;2.97;2.77;;;24.90;67.30;;;;;;5108607;28;20429;-71
2023/09/29 04:02:49;;;;;;;3.43;3.13;;;24.80;67.30;;;;;;5096898;28;20445;-71
2023/09/29 04:05:19;;;;;;;2.83;2.63;;;24.90;67.30;;;;;;5109584;27;20463;-71
2023/09/29 04:07:48;;;;;;;2.90;2.70;;;24.80;67.30;;;;;;5095532;28;20527;-72
2023/09/29 04:10:17;;;;;;;2.97;2.77;;;24.90;67.30;;;;;;5103063;28;20523;-75
2023/09/29 04:12:45;;;;;;;4.23;3.20;;;24.80;67.30;;;;;;5107138;28;20694;-71
2023/09/29 04:15:15;;;;;;;2.27;2.10;;;24.80;67.30;;;;;;5100686;28;20550;-77
2023/09/29 04:17:44;;;;;;;3.40;3.10;;;24.80;67.30;;;;;;5100196;28;20465;-77
2023/09/29 04:20:13;;;;;;;3.00;2.80;;;24.80;67.20;;;;;;5098564;28;20462;-75
2023/09/29 04:22:41;;;;;;;2.63;2.43;;;24.80;67.20;;;;;;5099706;28;22334;-70
2023/09/29 04:25:11;;;;;;;3.00;2.70;;;24.80;67.20;;;;;;5095715;28;20449;-71
2023/09/29 04:27:42;;;;;;;3.63;3.30;;;24.80;67.30;;;;;;5100126;28;20520;-68
2023/09/29 04:30:12;;;;;;;3.00;2.80;;;24.80;67.30;;;;;;5095256;28;20495;-80
2023/09/29 04:32:41;;;;;;;5.10;2.97;;;24.80;67.20;;;;;;5094247;28;20471;-69
2023/09/29 04:35:10;;;;;;;3.00;2.80;;;24.80;67.30;;;;;;5101763;28;21015;-69
2023/09/29 04:37:38;;;;;;;2.70;2.50;;;24.80;67.20;;;;;;5098481;28;20460;-72
2023/09/29 04:40:08;;;;;;;3.10;2.80;;;24.80;67.20;;;;;;5096043;28;20498;-75
2023/09/29 04:42:37;;;;;;;2.90;2.70;;;24.80;67.20;;;;;;5101019;28;20476;-76
2023/09/29 04:45:07;;;;;;;2.87;2.67;;;24.80;67.20;;;;;;5082181;28;21065;-70
2023/09/29 04:47:36;;;;;;;3.57;3.27;;;24.80;67.10;;;;;;5101149;27;20854;-69
2023/09/29 04:50:08;;;;;;;2.93;2.73;;;24.80;67.20;;;;;;5104837;28;20448;-70
2023/09/29 04:52:37;;;;;;;2.90;2.60;;;24.80;67.20;;;;;;5105419;28;20460;-69
2023/09/29 04:55:06;;;;;;;2.93;2.73;;;24.70;67.20;;;;;;5101092;28;20494;-74
2023/09/29 04:57:34;;;;;;;3.33;3.03;;;24.80;67.20;;;;;;5103992;27;20459;-75
2023/09/29 05:00:05;;;;;;;3.33;2.50;;;24.70;67.30;;;;;;5101523;27;20460;-74
2023/09/29 05:02:33;;;;;;;2.57;2.47;;;24.70;67.30;;;;;;5099293;27;20487;-74
2023/09/29 05:05:01;;;;;;;2.97;2.70;;;24.70;67.30;;;;;;5096150;27;21166;-70
2023/09/29 05:07:30;;;;;;;4.40;2.67;;;24.70;67.30;;;;;;5103134;28;20939;-72
2023/09/29 05:09:58;;;;;;;3.33;3.10;;;24.70;67.30;;;;;;5103394;28;22231;-72
2023/09/29 05:12:28;;;;;;;2.63;2.43;;;24.70;67.30;;;;;;5103795;28;20495;-71
2023/09/29 05:14:57;;;;;;;2.27;2.07;;;24.70;67.30;;;;;;5095873;27;20938;-71
2023/09/29 05:17:26;;;;;;;3.07;2.87;;;24.70;67.30;;;;;;5101881;28;20464;-74
2023/09/29 05:20:15;;;;;;;3.20;3.00;;;24.70;67.40;;;;;;5107840;27;21064;-76
2023/09/29 05:22:43;;;;;;;7.40;3.73;;;24.70;67.30;;;;;;5101590;28;20515;-74
2023/09/29 05:25:11;;;;;;;4.33;2.67;;;24.70;67.40;;;;;;5106296;28;21569;-72
2023/09/29 05:27:39;;;;;;;3.70;2.90;;;24.70;67.40;;;;;;5104495;28;20571;-71
2023/09/29 05:30:09;;;;;;;3.40;3.20;;;24.70;67.30;;;;;;5104340;28;20875;-79
2023/09/29 05:32:38;;;;;;;2.97;2.77;;;24.70;66.90;;;;;;5101321;28;20509;-72
2023/09/29 05:35:08;;;;;;;3.30;3.10;;;24.70;66.90;;;;;;5100967;28;20470;-72
2023/09/29 05:37:36;;;;;;;5.43;3.13;;;24.70;67.30;;;;;;5102269;27;20506;-79
2023/09/29 05:40:06;;;;;;;3.13;2.93;;;24.70;67.40;;;;;;5103604;28;20447;-71
2023/09/29 05:42:34;;;;;;;7.67;3.43;;;24.70;67.40;;;;;;5101844;28;21375;-71
2023/09/29 05:45:20;;;;;;;2.63;2.43;;;24.70;67.40;;;;;;5104187;28;20456;-78
2023/09/29 05:47:51;;;;;;;2.47;2.27;;;24.70;67.40;;;;;;5091528;27;20448;-76
2023/09/29 05:50:21;;;;;;;2.97;2.77;;;24.70;67.30;;;;;;5100696;27;20530;-71
2023/09/29 05:52:49;;;;;;;2.97;2.67;;;24.70;67.10;;;;;;5099518;28;20465;-74
2023/09/29 05:55:37;;;;;;;6.03;3.33;;;24.70;67.30;;;;;;5098936;28;20456;-70
2023/09/29 05:58:05;;;;;;;4.77;4.47;;;24.70;67.30;;;;;;5103265;27;20479;-72
2023/09/29 06:00:34;;;;;;;2.80;2.60;;;24.70;67.30;;;;;;5103981;28;20464;-73
2023/09/29 06:03:04;;;;;;;3.20;2.90;;;24.70;67.40;;;;;;5107610;28;20907;-71
2023/09/29 06:05:32;;;;;;;4.77;3.00;;;24.70;67.40;;;;;;5103797;28;20459;-71
2023/09/29 06:08:00;;;;;;;3.40;3.10;;;24.70;67.40;;;;;;5106525;28;20942;-71
2023/09/29 06:10:28;;;;;;;3.07;2.80;;;24.70;67.40;;;;;;5105602;27;20510;-72
2023/09/29 06:12:57;;;;;;;3.40;3.10;;;24.70;67.50;;;;;;5110046;27;20455;-71
2023/09/29 06:15:25;;;;;;;3.80;2.73;;;24.70;67.50;;;;;;5108241;28;20475;-78
2023/09/29 06:17:53;;;;;;;3.67;3.37;;;24.70;67.50;;;;;;5107007;28;20452;-75
2023/09/29 06:20:23;;;;;;;3.53;3.23;;;24.70;67.50;;;;;;5095471;27;20468;-75
2023/09/29 06:22:51;;;;;;;7.03;3.67;;;24.70;67.50;;;;;;5097897;27;20507;-76
2023/09/29 06:25:19;;;;;;;3.97;3.57;;;24.70;68.80;;;;;;5107410;27;20464;-76
2023/09/29 06:27:48;;;;;;;3.53;3.23;;;24.70;69.00;;;;;;5108550;27;20540;-76
2023/09/29 06:30:16;;;;;;;3.30;3.00;;;24.70;69.20;;;;;;5108514;28;20762;-76
2023/09/29 06:32:44;;;;;;;5.73;3.27;;;24.70;69.40;;;;;;5105448;27;20452;-76
2023/09/29 06:35:14;;;;;;;3.77;3.47;;;24.70;69.50;;;;;;5104955;28;21204;-76
2023/09/29 06:37:44;;;;;;;7.50;3.80;;;24.70;69.60;;;;;;5107685;27;20460;-76
2023/09/29 06:40:13;;;;;;;6.97;3.50;;;24.70;69.60;;;;;;5108407;28;20449;-76
2023/09/29 06:42:41;;;;;;;4.83;4.23;;;24.80;69.60;;;;;;5114813;27;20448;-75
2023/09/29 06:45:10;;;;;;;4.50;2.97;;;24.80;69.60;;;;;;5109538;27;20930;-75
2023/09/29 06:47:38;;;;;;;5.43;3.53;;;24.80;69.70;;;;;;5105439;27;21043;-76
2023/09/29 06:50:10;;;;;;;7.30;3.90;;;24.80;69.70;;;;;;5113663;27;20444;-75
2023/09/29 06:52:40;;;;;;;5.40;3.73;;;24.90;69.70;;;;;;5088412;27;20968;-75
2023/09/29 06:55:12;;;;;;;5.33;3.67;;;24.80;69.70;;;;;;5107147;28;20475;-75
2023/09/29 06:57:41;;;;;;;4.13;3.57;;;24.80;69.80;;;;;;5085444;28;20806;-76
2023/09/29 07:00:10;;;;;;;3.90;3.50;;;24.90;69.70;;;;;;5103356;28;20549;-76
2023/09/29 07:02:38;;;;;;;3.40;3.10;;;24.90;69.70;;;;;;5105922;28;20521;-76
2023/09/29 07:05:09;;;;;;;5.43;3.70;;;24.90;69.50;;;;;;5109643;27;20460;-76
2023/09/29 07:07:38;;;;;;;3.90;3.60;;;24.90;69.60;;;;;;5105244;27;20579;-76
2023/09/29 07:10:07;;;;;;;4.07;3.77;;;24.90;69.50;;;;;;5106090;28;20457;-76
2023/09/29 07:12:37;;;;;;;5.80;4.03;;;24.90;69.60;;;;;;5104371;28;20460;-76
2023/09/29 07:15:06;;;;;;;2.97;2.77;;;24.90;69.70;;;;;;5086212;28;20513;-76
2023/09/29 07:17:34;;;;;;;3.80;3.00;;;25.00;69.60;;;;;;5105227;27;20461;-76
2023/09/29 07:20:03;;;;;;;6.63;3.50;;;25.00;69.60;;;;;;5105778;27;20530;-75
2023/09/29 07:22:31;;;;;;;8.10;3.30;;;25.00;69.70;;;;;;5106461;28;20546;-75
2023/09/29 07:25:00;;;;;;;4.33;3.23;;;25.00;69.70;;;;;;5100508;28;20464;-75
2023/09/29 07:27:30;;;;;;;3.93;3.33;;;25.00;69.30;;;;;;5102388;28;20448;-75
2023/09/29 07:30:00;;;;;;;4.30;3.33;;;25.00;69.40;;;;;;5103638;28;20492;-75
2023/09/29 07:32:28;;;;;;;4.87;3.47;;;25.00;69.30;;;;;;5105457;27;20819;-75
2023/09/29 07:34:57;;;;;;;3.73;3.10;;;25.10;69.20;;;;;;5103574;28;20862;-75
2023/09/29 07:37:25;;;;;;;4.37;3.53;;;25.00;69.20;;;;;;5110798;27;20467;-75
2023/09/29 07:39:53;;;;;;;5.17;2.87;;;25.10;69.30;;;;;;5107788;27;20514;-76
2023/09/29 07:42:21;;;;;;;4.93;3.00;;;25.00;69.30;;;;;;5108064;28;20923;-75
2023/09/29 07:44:49;;;;;;;3.20;2.90;;;25.10;69.30;;;;;;5107322;28;20807;-75
2023/09/29 07:47:19;;;;;;;5.20;3.53;;;25.10;69.40;;;;;;5105367;28;20456;-75
2023/09/29 07:49:47;;;;;;;5.43;3.37;;;25.10;69.30;;;;;;5078879;28;20817;-76
2023/09/29 07:52:15;;;;;;;7.20;3.40;;;25.10;69.30;;;;;;5103227;28;20460;-75
2023/09/29 07:54:44;;;;;;;6.80;3.33;;;25.10;69.20;;;;;;5108989;28;20481;-77
2023/09/29 07:57:12;;;;;;;3.97;3.07;;;25.10;69.40;;;;;;5108364;27;20459;-75
2023/09/29 07:59:40;;;;;;;3.60;3.30;;;25.10;69.30;;;;;;5101236;28;20454;-75
2023/09/29 08:02:08;;;;;;;5.13;3.83;;;25.10;69.30;;;;;;5105369;28;20468;-74
2023/09/29 08:04:38;;;;;;;3.40;2.77;;;25.10;69.30;;;;;;5108969;28;20445;-75
2023/09/29 08:07:07;;;;;;;6.00;2.93;;;25.10;69.20;;;;;;5109837;28;20927;-75
2023/09/29 08:09:36;;;;;;;6.70;4.17;;;25.20;69.20;;;;;;5101498;28;20834;-77
2023/09/29 08:12:04;;;;;;;3.70;3.20;;;25.20;69.20;;;;;;5108384;28;20454;-77
2023/09/29 08:14:32;;;;;;;3.40;3.10;;;25.20;69.30;;;;;;5107463;28;20471;-77
2023/09/29 08:17:01;;;;;;;4.27;3.60;;;25.20;69.10;;;;;;5106110;28;20441;-75
2023/09/29 08:19:30;;;;;;;3.80;3.50;;;25.20;69.00;;;;;;5104084;28;20454;-76
2023/09/29 08:22:00;;;;;;;3.80;3.40;;;25.20;69.10;;;;;;5107447;28;20451;-75
2023/09/29 08:24:28;;;;;;;4.90;3.17;;;25.20;69.30;;;;;;5107438;28;20448;-75
2023/09/29 08:26:56;;;;;;;5.00;2.83;;;25.20;69.20;;;;;;5108032;28;20434;-75
2023/09/29 08:29:25;;;;;;;3.40;3.10;;;25.20;69.20;;;;;;5101098;28;20601;-76
2023/09/29 08:31:54;;;;;;;3.20;2.97;;;25.30;69.30;;;;;;5105022;28;20440;-75
2023/09/29 08:34:22;;;;;;;4.17;2.80;;;25.30;69.20;;;;;;5104285;28;20458;-76
2023/09/29 08:36:51;;;;;;;3.33;3.00;;;25.30;69.10;;;;;;5108892;28;20460;-75
2023/09/29 08:39:21;;;;;;;3.53;3.23;;;25.30;69.00;;;;;;5104787;28;20505;-76
2023/09/29 08:41:55;;;;;;;3.03;2.73;;;25.30;69.10;;;;;;5107476;28;20448;-76
2023/09/29 08:44:27;;;;;;;4.33;3.27;;;25.30;69.00;;;;;;5103238;28;20447;-76
2023/09/29 08:47:01;;;;;;;4.37;3.00;;;25.30;69.10;;;;;;5106259;28;20461;-75
2023/09/29 08:49:30;;;;;;;3.33;3.13;;;25.30;69.00;;;;;;5105393;28;20483;-76
2023/09/29 08:52:19;;;;;;;3.33;2.70;;;25.40;69.00;;;;;;5102654;28;20461;-77
2023/09/29 08:54:50;;;;;;;4.23;3.43;;;25.40;69.00;;;;;;5108667;28;20502;-76
2023/09/29 08:57:20;;;;;;;3.30;3.00;;;25.40;69.00;;;;;;5100946;28;20447;-76
2023/09/29 08:59:50;;;;;;;4.53;3.20;;;25.40;69.00;;;;;;5106990;28;20935;-76
2023/09/29 09:02:19;;;;;;;3.10;2.80;;;25.40;68.90;;;;;;5104321;28;20474;-76
2023/09/29 09:04:47;;;;;;;11.17;3.50;;;25.40;68.90;;;;;;5101831;28;20518;-76
2023/09/29 09:07:16;;;;;;;3.83;3.53;;;25.40;68.80;;;;;;5085276;28;20509;-76
2023/09/29 09:09:50;;;;;;;3.40;3.07;;;25.40;68.80;;;;;;5105955;28;20627;-76
2023/09/29 09:12:18;;;;;;;4.87;3.53;;;25.50;68.80;;;;;;5106133;28;20466;-76
2023/09/29 09:14:46;;;;;;;3.90;3.60;;;25.50;68.80;;;;;;5108203;28;20455;-75
2023/09/29 09:17:15;;;;;;;3.63;2.90;;;25.50;68.80;;;;;;5101383;28;20508;-75
2023/09/29 09:19:45;;;;;;;5.37;3.33;;;25.50;68.80;;;;;;5105666;28;20470;-75
2023/09/29 09:22:16;;;;;;;3.27;3.00;;;25.50;68.80;;;;;;5106532;28;20471;-76
2023/09/29 09:24:51;;;;;;;5.03;2.80;;;25.50;68.90;;;;;;5105937;28;20462;-76
2023/09/29 09:27:19;;;;;;;3.60;3.30;;;25.50;68.80;;;;;;5111023;27;20454;-75
2023/09/29 09:29:48;;;;;;;4.97;2.83;;;25.50;68.80;;;;;;5105719;28;20948;-75
2023/09/29 09:32:16;;;;;;;3.67;3.10;;;25.50;68.80;;;;;;5104048;28;20455;-76
2023/09/29 09:34:44;;;;;;;3.37;3.17;;;25.50;68.70;;;;;;5104656;28;20455;-75
2023/09/29 09:37:13;;;;;;;3.60;3.30;;;25.50;68.70;;;;;;5110502;28;20466;-76
2023/09/29 09:39:44;;;;;;;3.33;3.03;;;25.60;68.70;;;;;;5108110;28;20826;-76
2023/09/29 09:42:14;;;;;;;3.60;3.37;;;25.60;68.70;;;;;;5112418;27;20443;-76
2023/09/29 09:44:43;;;;;;;4.73;3.57;;;25.60;68.70;;;;;;5108987;28;20478;-77
2023/09/29 09:47:14;;;;;;;3.27;2.93;;;25.60;68.70;;;;;;5110096;28;20979;-77
2023/09/29 09:49:47;;;;;;;4.00;3.60;;;25.60;68.70;;;;;;5108779;28;20519;-76
2023/09/29 09:52:24;;;;;;;4.10;3.40;;;25.60;68.70;;;;;;5107067;28;20520;-76
2023/09/29 09:54:54;;;;;;;3.60;3.17;;;25.70;68.70;;;;;;5108039;28;20462;-76
2023/09/29 09:57:29;;;;;;;3.30;3.07;;;25.70;68.60;;;;;;5108653;28;20463;-76
2023/09/29 10:00:01;;;;;;;3.03;2.80;;;25.70;68.50;;;;;;5108867;28;20450;-75
2023/09/29 10:02:35;;;;;;;3.70;3.40;;;25.70;68.40;;;;;;5105950;27;20442;-75
2023/09/29 10:05:04;;;;;;;3.23;2.90;;;25.80;68.40;;;;;;5109085;28;20463;-76
2023/09/29 10:07:33;;;;;;;4.40;3.20;;;25.80;68.30;;;;;;5112278;28;20450;-75
2023/09/29 10:10:01;;;;;;;3.37;3.13;;;25.80;68.30;;;;;;5107671;28;20464;-75
2023/09/29 10:12:31;;;;;;;3.07;2.80;;;25.80;68.10;;;;;;5101497;27;20889;-75
2023/09/29 10:15:02;;;;;;;5.53;3.67;;;25.90;68.00;;;;;;5091289;28;20516;-75
2023/09/29 10:17:40;;;;;;;3.17;2.97;;;25.80;68.00;;;;;;5107398;28;20470;-75
2023/09/29 10:20:20;;;;;;;3.63;3.33;;;25.90;68.00;;;;;;5111548;28;20464;-77
2023/09/29 10:22:54;;;;;;;3.67;3.37;;;25.90;68.10;;;;;;5108599;28;20462;-77
2023/09/29 10:25:24;;;;;;;3.40;3.10;;;25.90;68.10;;;;;;5110441;28;20461;-75
2023/09/29 10:28:06;;;;;;;2.90;2.70;;;25.90;68.00;;;;;;5107889;27;20539;-77
2023/09/29 10:30:35;;;;;;;3.63;3.33;;;25.90;68.00;;;;;;5107618;28;20541;-78
2023/09/29 10:33:06;;;;;;;3.17;2.93;;;25.90;67.90;;;;;;5104459;27;20457;-77
2023/09/29 10:35:35;;;;;;;3.27;3.00;;;26.00;67.80;;;;;;5106772;28;20523;-75
2023/09/29 10:38:12;;;;;;;3.27;2.53;;;26.00;67.80;;;;;;5105594;28;20471;-75
2023/09/29 10:40:41;;;;;;;3.70;3.40;;;26.00;67.70;;;;;;5110991;28;20441;-75
2023/09/29 10:43:12;;;;;;;2.93;2.33;;;26.10;67.50;;;;;;5086154;28;20826;-75
2023/09/29 10:45:40;;;;;;;3.03;2.77;;;26.20;67.20;;;;;;5087197;28;20960;-75
2023/09/29 10:48:09;;;;;;;3.00;2.60;;;26.50;66.80;;;;;;5105932;28;20458;-76
2023/09/29 10:50:42;;;;;;;3.80;3.57;;;26.80;66.00;;;;;;5109672;28;20540;-76
2023/09/29 10:53:11;;;;;;;3.13;2.87;;;27.00;65.40;;;;;;5104573;28;20541;-76
2023/09/29 10:55:43;;;;;;;2.73;2.53;;;27.20;64.70;;;;;;5105687;27;20463;-76
2023/09/29 10:58:14;;;;;;;3.00;2.80;;;27.30;64.70;;;;;;5109804;27;20458;-75
2023/09/29 11:00:46;;;;;;;2.80;2.60;;;27.20;64.80;;;;;;5103965;27;20465;-76
2023/09/29 11:03:16;;;;;;;2.87;2.67;;;27.30;64.70;;;;;;5083069;28;20980;-77
2023/09/29 11:05:49;;;;;;;3.40;3.10;;;27.20;64.70;;;;;;5101023;27;20458;-78
2023/09/29 11:08:19;;;;;;;3.03;2.80;;;27.10;64.80;;;;;;5101136;28;20465;-79
2023/09/29 11:10:58;;;;;;;3.10;2.90;;;27.10;64.90;;;;;;5109400;27;20441;-79
2023/09/29 11:13:28;;;;;;;2.70;2.50;;;27.10;64.80;;;;;;5107863;28;20840;-78
2023/09/29 11:16:00;;;;;;;3.43;3.13;;;27.00;64.80;;;;;;5099623;28;20935;-78
2023/09/29 11:18:30;;;;;;;4.63;2.60;;;27.00;64.90;;;;;;5099651;28;20456;-78
2023/09/29 11:21:00;;;;;;;3.20;2.90;;;27.10;64.90;;;;;;5094697;28;20611;-79
2023/09/29 11:23:40;;;;;;;3.00;2.80;;;27.30;64.70;;;;;;5107225;28;20893;-77
2023/09/29 11:26:10;;;;;;;2.87;2.67;;;27.40;64.50;;;;;;5100491;28;20451;-79
2023/09/29 11:28:47;;;;;;;3.23;2.97;;;27.50;64.30;;;;;;5104344;28;20487;-80
2023/09/29 11:31:16;;;;;;;3.17;2.93;;;27.60;64.10;;;;;;5103934;28;20456;-77
2023/09/29 11:33:45;;;;;;;2.93;2.73;;;27.60;63.90;;;;;;5103810;28;20447;-79
2023/09/29 11:36:16;;;;;;;2.73;2.53;;;27.70;63.80;;;;;;5099257;27;20459;-77
2023/09/29 11:38:44;;;;;;;3.63;3.33;;;27.80;63.70;;;;;;5096644;27;20454;-79
2023/09/29 11:41:15;;;;;;;2.87;2.67;;;27.80;63.60;;;;;;5075976;28;20546;-79
2023/09/29 11:43:46;;;;;;;3.43;3.13;;;27.90;63.50;;;;;;5092763;28;20461;-78
2023/09/29 11:46:14;;;;;;;3.57;3.27;;;27.80;63.50;;;;;;5092314;28;20452;-79
2023/09/29 11:48:44;;;;;;;3.50;3.00;;;27.90;63.50;;;;;;5099892;28;20543;-79
2023/09/29 11:51:15;;;;;;;3.13;2.90;;;27.90;63.40;;;;;;5101416;27;20895;-77
2023/09/29 11:53:44;;;;;;;3.50;3.07;;;27.90;63.40;;;;;;5104133;28;20448;-77
2023/09/29 11:56:13;;;;;;;3.17;2.97;;;27.90;63.30;;;;;;5091440;28;20456;-79
2023/09/29 11:58:41;;;;;;;3.20;2.83;;;28.00;63.20;;;;;;5098282;27;20461;-77
2023/09/29 12:01:11;;;;;;;3.43;2.77;;;28.00;63.20;;;;;;5107572;28;20519;-77
2023/09/29 12:03:41;;;;;;;4.10;3.50;;;28.00;63.20;;;;;;5102969;28;20466;-77
2023/09/29 12:06:09;;;;;;;4.30;3.03;;;28.00;63.10;;;;;;5098347;28;20460;-76
2023/09/29 12:08:38;;;;;;;4.37;4.07;;;28.10;63.10;;;;;;5102832;28;20527;-76
2023/09/29 12:11:07;;;;;;;5.77;4.10;;;28.10;63.00;;;;;;5103464;28;20453;-75
2023/09/29 12:13:38;;;;;;;3.53;3.23;;;28.10;63.00;;;;;;5107044;28;20457;-77
2023/09/29 12:16:08;;;;;;;4.13;3.60;;;28.10;63.00;;;;;;5102798;28;20494;-76
2023/09/29 12:18:37;;;;;;;4.07;3.67;;;28.10;63.00;;;;;;5101819;28;20959;-76
2023/09/29 12:21:10;;;;;;;5.50;3.63;;;28.10;63.00;;;;;;5107072;28;20534;-78
2023/09/29 12:23:40;;;;;;;4.27;3.87;;;28.10;62.80;;;;;;5102130;28;20937;-77
2023/09/29 12:26:09;;;;;;;4.13;3.67;;;28.20;62.80;;;;;;5104213;28;20460;-75
2023/09/29 12:28:37;;;;;;;4.77;4.27;;;28.10;62.80;;;;;;5105244;28;20522;-77
2023/09/29 12:31:15;;;;;;;4.10;3.80;;;28.20;62.80;;;;;;5100391;28;20510;-77
2023/09/29 12:33:45;;;;;;;4.33;3.93;;;28.20;62.80;;;;;;5104815;28;20477;-77
2023/09/29 12:36:14;;;;;;;3.83;3.50;;;28.20;62.80;;;;;;5108560;28;20446;-77
2023/09/29 12:38:43;;;;;;;4.43;3.93;;;28.20;62.90;;;;;;5107886;28;20470;-75
2023/09/29 12:41:14;;;;;;;3.93;3.63;;;28.20;62.80;;;;;;5101744;28;20505;-78
2023/09/29 12:43:43;;;;;;;6.50;3.40;;;28.20;62.90;;;;;;5106754;28;20537;-76
2023/09/29 12:46:12;;;;;;;4.20;3.80;;;28.20;62.90;;;;;;5101233;28;20541;-77
2023/09/29 12:48:40;;;;;;;5.70;4.17;;;28.20;62.90;;;;;;5107550;28;20443;-74
2023/09/29 12:51:14;;;;;;;4.17;3.70;;;28.10;63.00;;;;;;5101637;28;20511;-75
2023/09/29 12:53:55;;;;;;;3.90;3.60;;;28.10;63.20;;;;;;5087895;28;20453;-80
2023/09/29 12:56:25;;;;;;;4.07;3.50;;;28.10;63.30;;;;;;5105453;28;20471;-75
2023/09/29 12:58:55;;;;;;;5.10;3.13;;;28.20;63.20;;;;;;5102511;28;20467;-71
2023/09/29 13:01:25;;;;;;;6.33;3.23;;;28.30;63.00;;;;;;5106485;27;20465;-70